ALTO2: Altus Lake, OK

Data processed at Fri Jun 05 2020 23:55


All information presented herein is the property of the government of the United States of America and may be revised or deleted at any time without prior notice.
Dissemination of this information without the expressed written consent of the Public Affairs Office, Tulsa District U.S. Army Corps of Engineers is strictly prohibited.
These data are gathered electronically and, as presented, have not undergone any form of quality control. These data are not guaranteed to be valid or correct.
Go to home page.
Go to station list.
Go to home page.

Upstream stations:

Downstream station:
Previous Day
Next Day
Current Day
    
SHEF ID:       ALTO2     Altus Lake
STATION TYPE:  Reservoir
Flood Pool:  Bottom =  1559.00, Top =  1562.00

               PRECIP ELEVATION   STORAGE    INFLOW   RELEASE   VOLTAGE
                   in        ft     ac-ft       cfs       cfs      volt
              Ccp-Rev   Ccp-Rev   Ccp-Rev  Rev-Regi  Rev-Regi   Ccp-Rev
(US/Central)
06/05 00:00      0.00   1552.76     94872       135         0     12.17
06/05 01:00      0.00   1552.75     94823       135         0     12.09
06/05 02:00      0.00   1552.76     94872         0         0     12.09
06/05 03:00      0.00   1552.75     94823        39         0     12.09
06/05 04:00      0.19   1552.75     94823        39         0     12.09
06/05 05:00      0.00   1552.76     94872        39         0     12.09
06/05 06:00      0.00   1552.76     94872        39         0     12.09
06/05 07:00      0.00   1552.71     94628       271         0     12.01
06/05 08:00      0.00   1552.75     94823       270         0     12.09
06/05 09:00      0.00   1552.81     95116       270         0     12.17
06/05 10:00      0.00   1552.82     95165       270         0     12.81
06/05 11:00      0.00   1552.80     95067       270         0     13.13
06/05 12:00      0.00   1552.79     95018        60         0     13.05
06/05 13:00      0.00   1552.79     95018        43         0     12.89
06/05 14:00      0.00   1552.81     95116        43         0     12.81
06/05 15:00      0.00   1552.80     95067        43         0     12.73
06/05 16:00      0.00   1552.79     95018        43         0     12.73
06/05 17:00      0.00   1552.78     94970        22         0     12.65
06/05 18:00      0.00   1552.79     95018         0         0     12.65
06/05 19:00      0.00   1552.79     95018         0         0     12.57
06/05 20:00      0.00   1552.79     95018         0         0     12.49
06/05 21:00      0.00   1552.79     95018         0         0     12.25
06/05 22:00      0.00   1552.78     94970      ----         0     12.17
06/05 23:00      0.00   1552.75     94823      ----      ----     12.17